sensor_id;sensor_type;location;lat;lon;timestamp;P1;durP1;ratioP1;P2;durP2;ratioP2
78402;SDS011;67687;43.508;1.504;2023-07-29T00:01:41;6.07;;;4.00;;
78402;SDS011;67687;43.508;1.504;2023-07-29T00:04:08;7.03;;;4.20;;
78402;SDS011;67687;43.508;1.504;2023-07-29T00:06:35;6.85;;;4.18;;
78402;SDS011;67687;43.508;1.504;2023-07-29T00:09:02;5.97;;;4.10;;
78402;SDS011;67687;43.508;1.504;2023-07-29T00:11:30;5.93;;;4.00;;
78402;SDS011;67687;43.508;1.504;2023-07-29T00:13:58;5.32;;;4.05;;
78402;SDS011;67687;43.508;1.504;2023-07-29T00:16:25;6.35;;;4.40;;
78402;SDS011;67687;43.508;1.504;2023-07-29T00:18:52;6.63;;;4.32;;
78402;SDS011;67687;43.508;1.504;2023-07-29T00:21:19;6.45;;;4.28;;
78402;SDS011;67687;43.508;1.504;2023-07-29T00:23:45;6.07;;;4.37;;
78402;SDS011;67687;43.508;1.504;2023-07-29T00:26:12;6.63;;;4.28;;
78402;SDS011;67687;43.508;1.504;2023-07-29T00:28:40;7.47;;;4.35;;
78402;SDS011;67687;43.508;1.504;2023-07-29T00:31:07;7.13;;;4.75;;
78402;SDS011;67687;43.508;1.504;2023-07-29T00:33:33;6.68;;;4.07;;
78402;SDS011;67687;43.508;1.504;2023-07-29T00:36:00;5.67;;;4.50;;
78402;SDS011;67687;43.508;1.504;2023-07-29T00:38:28;7.53;;;4.90;;
78402;SDS011;67687;43.508;1.504;2023-07-29T00:40:54;7.03;;;4.80;;
78402;SDS011;67687;43.508;1.504;2023-07-29T00:43:23;6.63;;;4.45;;
78402;SDS011;67687;43.508;1.504;2023-07-29T00:45:51;6.40;;;4.88;;
78402;SDS011;67687;43.508;1.504;2023-07-29T00:48:18;6.37;;;4.53;;
78402;SDS011;67687;43.508;1.504;2023-07-29T00:50:44;7.07;;;5.00;;
78402;SDS011;67687;43.508;1.504;2023-07-29T00:53:11;6.28;;;4.68;;
78402;SDS011;67687;43.508;1.504;2023-07-29T00:55:38;6.75;;;4.53;;
78402;SDS011;67687;43.508;1.504;2023-07-29T00:58:05;7.55;;;4.60;;
78402;SDS011;67687;43.508;1.504;2023-07-29T01:00:31;8.60;;;5.13;;
78402;SDS011;67687;43.508;1.504;2023-07-29T01:02:59;7.28;;;4.50;;
78402;SDS011;67687;43.508;1.504;2023-07-29T01:05:27;8.55;;;4.75;;
78402;SDS011;67687;43.508;1.504;2023-07-29T01:07:59;6.75;;;4.63;;
78402;SDS011;67687;43.508;1.504;2023-07-29T01:10:30;6.65;;;5.07;;
78402;SDS011;67687;43.508;1.504;2023-07-29T01:13:01;6.87;;;4.97;;
78402;SDS011;67687;43.508;1.504;2023-07-29T01:15:33;7.03;;;4.85;;
78402;SDS011;67687;43.508;1.504;2023-07-29T01:18:06;6.53;;;4.68;;
78402;SDS011;67687;43.508;1.504;2023-07-29T01:20:36;6.55;;;4.47;;
78402;SDS011;67687;43.508;1.504;2023-07-29T01:23:04;6.50;;;4.45;;
78402;SDS011;67687;43.508;1.504;2023-07-29T01:25:32;7.47;;;5.27;;
78402;SDS011;67687;43.508;1.504;2023-07-29T01:27:59;7.40;;;4.97;;
78402;SDS011;67687;43.508;1.504;2023-07-29T01:30:31;6.28;;;4.85;;
78402;SDS011;67687;43.508;1.504;2023-07-29T01:33:03;7.05;;;4.80;;
78402;SDS011;67687;43.508;1.504;2023-07-29T01:35:33;7.03;;;5.13;;
78402;SDS011;67687;43.508;1.504;2023-07-29T01:38:03;6.10;;;4.70;;
78402;SDS011;67687;43.508;1.504;2023-07-29T01:40:33;6.20;;;4.70;;
78402;SDS011;67687;43.508;1.504;2023-07-29T01:43:00;7.63;;;5.00;;
78402;SDS011;67687;43.508;1.504;2023-07-29T01:45:27;7.03;;;5.07;;
78402;SDS011;67687;43.508;1.504;2023-07-29T01:47:56;7.38;;;5.28;;
78402;SDS011;67687;43.508;1.504;2023-07-29T01:50:23;7.33;;;5.00;;
78402;SDS011;67687;43.508;1.504;2023-07-29T01:52:50;7.78;;;4.90;;
78402;SDS011;67687;43.508;1.504;2023-07-29T01:55:17;6.95;;;4.70;;
78402;SDS011;67687;43.508;1.504;2023-07-29T01:57:45;6.43;;;4.90;;
78402;SDS011;67687;43.508;1.504;2023-07-29T02:00:11;6.60;;;5.18;;
78402;SDS011;67687;43.508;1.504;2023-07-29T02:02:38;8.50;;;5.47;;
78402;SDS011;67687;43.508;1.504;2023-07-29T02:05:05;6.40;;;4.47;;
78402;SDS011;67687;43.508;1.504;2023-07-29T02:07:32;6.32;;;4.47;;
78402;SDS011;67687;43.508;1.504;2023-07-29T02:09:59;7.85;;;4.70;;
78402;SDS011;67687;43.508;1.504;2023-07-29T02:12:25;7.57;;;4.60;;
78402;SDS011;67687;43.508;1.504;2023-07-29T02:14:54;7.93;;;4.87;;
78402;SDS011;67687;43.508;1.504;2023-07-29T02:17:20;6.07;;;4.30;;
78402;SDS011;67687;43.508;1.504;2023-07-29T02:19:47;7.40;;;4.25;;
78402;SDS011;67687;43.508;1.504;2023-07-29T02:22:14;7.40;;;4.68;;
78402;SDS011;67687;43.508;1.504;2023-07-29T02:24:42;6.57;;;4.32;;
78402;SDS011;67687;43.508;1.504;2023-07-29T02:27:08;8.57;;;4.67;;
78402;SDS011;67687;43.508;1.504;2023-07-29T02:29:35;6.47;;;4.50;;
78402;SDS011;67687;43.508;1.504;2023-07-29T02:32:03;7.53;;;5.07;;
78402;SDS011;67687;43.508;1.504;2023-07-29T02:34:30;7.97;;;5.00;;
78402;SDS011;67687;43.508;1.504;2023-07-29T02:36:57;7.78;;;4.95;;
78402;SDS011;67687;43.508;1.504;2023-07-29T02:39:24;5.90;;;4.83;;
78402;SDS011;67687;43.508;1.504;2023-07-29T02:41:51;7.97;;;4.50;;
78402;SDS011;67687;43.508;1.504;2023-07-29T02:44:17;8.23;;;5.22;;
78402;SDS011;67687;43.508;1.504;2023-07-29T02:46:45;7.72;;;5.07;;
78402;SDS011;67687;43.508;1.504;2023-07-29T02:49:13;7.15;;;4.80;;
78402;SDS011;67687;43.508;1.504;2023-07-29T02:51:39;6.83;;;5.00;;
78402;SDS011;67687;43.508;1.504;2023-07-29T02:54:06;6.45;;;4.88;;
78402;SDS011;67687;43.508;1.504;2023-07-29T02:56:33;6.35;;;4.60;;
78402;SDS011;67687;43.508;1.504;2023-07-29T02:59:00;7.03;;;5.00;;
78402;SDS011;67687;43.508;1.504;2023-07-29T03:01:26;6.50;;;4.75;;
78402;SDS011;67687;43.508;1.504;2023-07-29T03:03:53;5.90;;;4.73;;
78402;SDS011;67687;43.508;1.504;2023-07-29T03:06:21;6.38;;;4.97;;
78402;SDS011;67687;43.508;1.504;2023-07-29T03:08:48;7.35;;;4.85;;
78402;SDS011;67687;43.508;1.504;2023-07-29T03:11:15;6.80;;;4.85;;
78402;SDS011;67687;43.508;1.504;2023-07-29T03:13:42;6.05;;;4.60;;
78402;SDS011;67687;43.508;1.504;2023-07-29T03:16:10;6.43;;;4.67;;
78402;SDS011;67687;43.508;1.504;2023-07-29T03:18:38;6.45;;;4.80;;
78402;SDS011;67687;43.508;1.504;2023-07-29T03:21:05;6.55;;;4.82;;
78402;SDS011;67687;43.508;1.504;2023-07-29T03:23:33;7.40;;;5.13;;
78402;SDS011;67687;43.508;1.504;2023-07-29T03:26:01;7.00;;;4.80;;
78402;SDS011;67687;43.508;1.504;2023-07-29T03:28:35;7.47;;;5.47;;
78402;SDS011;67687;43.508;1.504;2023-07-29T03:31:02;6.70;;;4.90;;
78402;SDS011;67687;43.508;1.504;2023-07-29T03:33:29;7.90;;;5.25;;
78402;SDS011;67687;43.508;1.504;2023-07-29T03:35:55;8.25;;;4.95;;
78402;SDS011;67687;43.508;1.504;2023-07-29T03:38:22;6.05;;;4.90;;
78402;SDS011;67687;43.508;1.504;2023-07-29T03:40:50;6.53;;;4.80;;
78402;SDS011;67687;43.508;1.504;2023-07-29T03:43:18;5.80;;;4.45;;
78402;SDS011;67687;43.508;1.504;2023-07-29T03:45:45;7.05;;;4.90;;
78402;SDS011;67687;43.508;1.504;2023-07-29T03:48:12;6.57;;;5.10;;
78402;SDS011;67687;43.508;1.504;2023-07-29T03:50:38;7.15;;;5.00;;
78402;SDS011;67687;43.508;1.504;2023-07-29T03:53:05;7.33;;;4.77;;
78402;SDS011;67687;43.508;1.504;2023-07-29T03:55:32;6.55;;;4.95;;
78402;SDS011;67687;43.508;1.504;2023-07-29T03:58:00;6.60;;;5.03;;
78402;SDS011;67687;43.508;1.504;2023-07-29T04:00:27;8.48;;;5.45;;
78402;SDS011;67687;43.508;1.504;2023-07-29T04:02:54;7.20;;;4.70;;
78402;SDS011;67687;43.508;1.504;2023-07-29T04:05:20;6.60;;;4.90;;
78402;SDS011;67687;43.508;1.504;2023-07-29T04:07:47;7.22;;;5.00;;
78402;SDS011;67687;43.508;1.504;2023-07-29T04:10:14;7.68;;;5.18;;
78402;SDS011;67687;43.508;1.504;2023-07-29T04:12:40;6.68;;;5.13;;
78402;SDS011;67687;43.508;1.504;2023-07-29T04:15:09;8.02;;;5.30;;
78402;SDS011;67687;43.508;1.504;2023-07-29T04:17:36;6.50;;;4.97;;
78402;SDS011;67687;43.508;1.504;2023-07-29T04:20:03;7.05;;;5.30;;
78402;SDS011;67687;43.508;1.504;2023-07-29T04:22:30;8.18;;;5.53;;
78402;SDS011;67687;43.508;1.504;2023-07-29T04:24:57;7.25;;;5.60;;
78402;SDS011;67687;43.508;1.504;2023-07-29T04:27:23;7.68;;;5.30;;
78402;SDS011;67687;43.508;1.504;2023-07-29T04:29:50;9.63;;;5.80;;
78402;SDS011;67687;43.508;1.504;2023-07-29T04:32:18;8.75;;;5.68;;
78402;SDS011;67687;43.508;1.504;2023-07-29T04:34:45;7.35;;;5.00;;
78402;SDS011;67687;43.508;1.504;2023-07-29T04:37:12;6.93;;;4.93;;
78402;SDS011;67687;43.508;1.504;2023-07-29T04:39:39;6.70;;;5.07;;
78402;SDS011;67687;43.508;1.504;2023-07-29T04:42:05;8.03;;;5.40;;
78402;SDS011;67687;43.508;1.504;2023-07-29T04:44:32;7.13;;;5.53;;
78402;SDS011;67687;43.508;1.504;2023-07-29T04:46:59;7.55;;;5.63;;
78402;SDS011;67687;43.508;1.504;2023-07-29T04:49:27;6.35;;;5.18;;
78402;SDS011;67687;43.508;1.504;2023-07-29T04:51:54;8.15;;;5.78;;
78402;SDS011;67687;43.508;1.504;2023-07-29T04:54:20;6.87;;;5.67;;
78402;SDS011;67687;43.508;1.504;2023-07-29T04:56:47;7.28;;;5.30;;
78402;SDS011;67687;43.508;1.504;2023-07-29T04:59:14;7.60;;;5.80;;
78402;SDS011;67687;43.508;1.504;2023-07-29T05:01:41;7.45;;;5.72;;
78402;SDS011;67687;43.508;1.504;2023-07-29T05:04:08;7.10;;;5.25;;
78402;SDS011;67687;43.508;1.504;2023-07-29T05:06:36;7.63;;;5.80;;
78402;SDS011;67687;43.508;1.504;2023-07-29T05:09:12;8.13;;;4.82;;
78402;SDS011;67687;43.508;1.504;2023-07-29T05:11:39;8.57;;;5.28;;
78402;SDS011;67687;43.508;1.504;2023-07-29T05:14:06;6.97;;;5.43;;
78402;SDS011;67687;43.508;1.504;2023-07-29T05:16:34;7.68;;;6.38;;
78402;SDS011;67687;43.508;1.504;2023-07-29T05:19:01;7.40;;;5.83;;
78402;SDS011;67687;43.508;1.504;2023-07-29T05:21:28;7.57;;;6.30;;
78402;SDS011;67687;43.508;1.504;2023-07-29T05:23:56;6.55;;;5.57;;
78402;SDS011;67687;43.508;1.504;2023-07-29T05:26:22;7.60;;;5.70;;
78402;SDS011;67687;43.508;1.504;2023-07-29T05:28:49;8.07;;;5.43;;
78402;SDS011;67687;43.508;1.504;2023-07-29T05:31:16;6.77;;;6.07;;
78402;SDS011;67687;43.508;1.504;2023-07-29T05:33:43;9.50;;;7.20;;
78402;SDS011;67687;43.508;1.504;2023-07-29T05:36:09;7.78;;;7.05;;
78402;SDS011;67687;43.508;1.504;2023-07-29T05:38:36;7.95;;;7.10;;
78402;SDS011;67687;43.508;1.504;2023-07-29T05:41:04;8.43;;;7.47;;
78402;SDS011;67687;43.508;1.504;2023-07-29T05:43:31;6.93;;;6.33;;
78402;SDS011;67687;43.508;1.504;2023-07-29T05:45:58;7.63;;;6.93;;
78402;SDS011;67687;43.508;1.504;2023-07-29T05:48:24;8.63;;;7.72;;
78402;SDS011;67687;43.508;1.504;2023-07-29T05:50:51;7.30;;;6.60;;
78402;SDS011;67687;43.508;1.504;2023-07-29T05:53:18;7.75;;;7.00;;
78402;SDS011;67687;43.508;1.504;2023-07-29T05:55:44;9.67;;;7.23;;
78402;SDS011;67687;43.508;1.504;2023-07-29T05:58:12;8.85;;;7.68;;
78402;SDS011;67687;43.508;1.504;2023-07-29T06:00:39;9.48;;;8.70;;
78402;SDS011;67687;43.508;1.504;2023-07-29T06:03:06;9.18;;;8.38;;
78402;SDS011;67687;43.508;1.504;2023-07-29T06:05:32;9.80;;;9.00;;
78402;SDS011;67687;43.508;1.504;2023-07-29T06:07:59;9.37;;;8.57;;
78402;SDS011;67687;43.508;1.504;2023-07-29T06:10:26;9.95;;;9.05;;
78402;SDS011;67687;43.508;1.504;2023-07-29T06:12:53;10.27;;;9.38;;
78402;SDS011;67687;43.508;1.504;2023-07-29T06:15:21;8.93;;;8.02;;
78402;SDS011;67687;43.508;1.504;2023-07-29T06:17:48;8.23;;;7.40;;
78402;SDS011;67687;43.508;1.504;2023-07-29T06:20:15;9.33;;;8.50;;
78402;SDS011;67687;43.508;1.504;2023-07-29T06:22:41;9.13;;;8.23;;
78402;SDS011;67687;43.508;1.504;2023-07-29T06:25:08;8.52;;;7.72;;
78402;SDS011;67687;43.508;1.504;2023-07-29T06:27:35;8.85;;;7.68;;
78402;SDS011;67687;43.508;1.504;2023-07-29T06:30:02;7.85;;;7.05;;
78402;SDS011;67687;43.508;1.504;2023-07-29T06:32:30;8.77;;;6.67;;
78402;SDS011;67687;43.508;1.504;2023-07-29T06:34:57;7.32;;;5.80;;
78402;SDS011;67687;43.508;1.504;2023-07-29T06:37:24;6.93;;;5.60;;
78402;SDS011;67687;43.508;1.504;2023-07-29T06:39:51;8.70;;;6.18;;
78402;SDS011;67687;43.508;1.504;2023-07-29T06:42:17;8.15;;;5.72;;
78402;SDS011;67687;43.508;1.504;2023-07-29T06:44:44;7.67;;;5.73;;
78402;SDS011;67687;43.508;1.504;2023-07-29T06:47:12;7.75;;;6.15;;
78402;SDS011;67687;43.508;1.504;2023-07-29T06:49:40;7.70;;;6.00;;
78402;SDS011;67687;43.508;1.504;2023-07-29T06:52:07;8.05;;;6.30;;
78402;SDS011;67687;43.508;1.504;2023-07-29T06:54:33;8.32;;;6.75;;
78402;SDS011;67687;43.508;1.504;2023-07-29T06:57:00;7.67;;;6.57;;
78402;SDS011;67687;43.508;1.504;2023-07-29T06:59:27;8.40;;;6.63;;
78402;SDS011;67687;43.508;1.504;2023-07-29T07:01:54;7.85;;;5.75;;
78402;SDS011;67687;43.508;1.504;2023-07-29T07:04:20;7.80;;;5.97;;
78402;SDS011;67687;43.508;1.504;2023-07-29T07:06:49;7.60;;;6.38;;
78402;SDS011;67687;43.508;1.504;2023-07-29T07:09:16;7.67;;;6.30;;
78402;SDS011;67687;43.508;1.504;2023-07-29T07:11:42;9.02;;;6.53;;
78402;SDS011;67687;43.508;1.504;2023-07-29T07:14:09;7.57;;;6.25;;
78402;SDS011;67687;43.508;1.504;2023-07-29T07:16:36;9.90;;;6.60;;
78402;SDS011;67687;43.508;1.504;2023-07-29T07:19:04;8.02;;;6.68;;
78402;SDS011;67687;43.508;1.504;2023-07-29T07:21:31;7.40;;;6.07;;
78402;SDS011;67687;43.508;1.504;2023-07-29T07:23:59;9.05;;;6.72;;
78402;SDS011;67687;43.508;1.504;2023-07-29T07:26:26;8.25;;;6.55;;
78402;SDS011;67687;43.508;1.504;2023-07-29T07:28:53;8.15;;;6.47;;
78402;SDS011;67687;43.508;1.504;2023-07-29T07:31:19;9.73;;;6.45;;
78402;SDS011;67687;43.508;1.504;2023-07-29T07:33:46;8.73;;;6.50;;
78402;SDS011;67687;43.508;1.504;2023-07-29T07:36:13;8.35;;;6.30;;
78402;SDS011;67687;43.508;1.504;2023-07-29T07:38:40;6.95;;;5.70;;
78402;SDS011;67687;43.508;1.504;2023-07-29T07:41:08;8.02;;;6.18;;
78402;SDS011;67687;43.508;1.504;2023-07-29T07:43:35;8.00;;;5.90;;
78402;SDS011;67687;43.508;1.504;2023-07-29T07:46:02;7.83;;;5.40;;
78402;SDS011;67687;43.508;1.504;2023-07-29T07:48:29;6.13;;;5.38;;
78402;SDS011;67687;43.508;1.504;2023-07-29T07:50:58;7.20;;;5.38;;
78402;SDS011;67687;43.508;1.504;2023-07-29T07:53:24;6.03;;;4.93;;
78402;SDS011;67687;43.508;1.504;2023-07-29T07:55:51;7.10;;;4.90;;
78402;SDS011;67687;43.508;1.504;2023-07-29T07:58:20;7.23;;;5.40;;
78402;SDS011;67687;43.508;1.504;2023-07-29T08:00:46;7.10;;;5.43;;
78402;SDS011;67687;43.508;1.504;2023-07-29T08:03:13;6.90;;;5.82;;
78402;SDS011;67687;43.508;1.504;2023-07-29T08:05:40;7.30;;;5.35;;
78402;SDS011;67687;43.508;1.504;2023-07-29T08:08:06;7.45;;;5.57;;
78402;SDS011;67687;43.508;1.504;2023-07-29T08:10:33;8.00;;;5.40;;
78402;SDS011;67687;43.508;1.504;2023-07-29T08:13:00;6.85;;;5.28;;
78402;SDS011;67687;43.508;1.504;2023-07-29T08:15:29;8.23;;;5.47;;
78402;SDS011;67687;43.508;1.504;2023-07-29T08:17:56;7.07;;;5.68;;
78402;SDS011;67687;43.508;1.504;2023-07-29T08:20:22;6.68;;;5.70;;
78402;SDS011;67687;43.508;1.504;2023-07-29T08:22:49;5.73;;;5.13;;
78402;SDS011;67687;43.508;1.504;2023-07-29T08:25:16;7.63;;;5.20;;
78402;SDS011;67687;43.508;1.504;2023-07-29T08:27:43;6.93;;;5.35;;
78402;SDS011;67687;43.508;1.504;2023-07-29T08:30:09;7.47;;;5.50;;
78402;SDS011;67687;43.508;1.504;2023-07-29T08:32:38;7.15;;;4.82;;
78402;SDS011;67687;43.508;1.504;2023-07-29T08:35:05;7.60;;;5.40;;
78402;SDS011;67687;43.508;1.504;2023-07-29T08:37:32;6.22;;;5.25;;
78402;SDS011;67687;43.508;1.504;2023-07-29T08:39:58;7.78;;;5.30;;
78402;SDS011;67687;43.508;1.504;2023-07-29T08:42:26;6.32;;;5.13;;
78402;SDS011;67687;43.508;1.504;2023-07-29T08:44:55;6.70;;;5.00;;
78402;SDS011;67687;43.508;1.504;2023-07-29T08:47:22;5.80;;;4.77;;
78402;SDS011;67687;43.508;1.504;2023-07-29T08:49:51;5.95;;;4.53;;
78402;SDS011;67687;43.508;1.504;2023-07-29T08:52:18;7.32;;;5.10;;
78402;SDS011;67687;43.508;1.504;2023-07-29T08:54:45;5.55;;;4.50;;
78402;SDS011;67687;43.508;1.504;2023-07-29T08:57:13;6.53;;;4.57;;
78402;SDS011;67687;43.508;1.504;2023-07-29T08:59:40;6.47;;;4.67;;
78402;SDS011;67687;43.508;1.504;2023-07-29T09:02:06;6.05;;;4.43;;
78402;SDS011;67687;43.508;1.504;2023-07-29T09:04:33;5.47;;;4.07;;
78402;SDS011;67687;43.508;1.504;2023-07-29T09:07:01;6.60;;;4.40;;
78402;SDS011;67687;43.508;1.504;2023-07-29T09:09:28;5.88;;;4.20;;
78402;SDS011;67687;43.508;1.504;2023-07-29T09:11:55;7.07;;;4.07;;
78402;SDS011;67687;43.508;1.504;2023-07-29T09:14:22;6.13;;;4.00;;
78402;SDS011;67687;43.508;1.504;2023-07-29T09:16:49;6.07;;;3.90;;
78402;SDS011;67687;43.508;1.504;2023-07-29T09:19:16;5.45;;;4.07;;
78402;SDS011;67687;43.508;1.504;2023-07-29T09:21:45;5.57;;;4.32;;
78402;SDS011;67687;43.508;1.504;2023-07-29T09:24:14;6.17;;;4.23;;
78402;SDS011;67687;43.508;1.504;2023-07-29T09:26:47;6.43;;;4.70;;
78402;SDS011;67687;43.508;1.504;2023-07-29T09:29:15;6.18;;;4.65;;
78402;SDS011;67687;43.508;1.504;2023-07-29T09:31:41;6.55;;;4.93;;
78402;SDS011;67687;43.508;1.504;2023-07-29T09:34:08;6.13;;;4.63;;
78402;SDS011;67687;43.508;1.504;2023-07-29T09:36:35;7.30;;;4.83;;
78402;SDS011;67687;43.508;1.504;2023-07-29T09:39:01;6.00;;;4.18;;
78402;SDS011;67687;43.508;1.504;2023-07-29T09:41:30;5.57;;;4.38;;
78402;SDS011;67687;43.508;1.504;2023-07-29T09:43:57;5.65;;;4.38;;
78402;SDS011;67687;43.508;1.504;2023-07-29T09:46:31;6.18;;;4.53;;
78402;SDS011;67687;43.508;1.504;2023-07-29T09:48:59;4.97;;;3.93;;
78402;SDS011;67687;43.508;1.504;2023-07-29T09:51:25;5.72;;;4.22;;
78402;SDS011;67687;43.508;1.504;2023-07-29T09:53:52;5.47;;;4.28;;
78402;SDS011;67687;43.508;1.504;2023-07-29T09:56:23;7.45;;;4.50;;
78402;SDS011;67687;43.508;1.504;2023-07-29T09:58:52;5.97;;;4.10;;
78402;SDS011;67687;43.508;1.504;2023-07-29T10:01:20;5.47;;;3.97;;
78402;SDS011;67687;43.508;1.504;2023-07-29T10:03:47;6.80;;;4.30;;
78402;SDS011;67687;43.508;1.504;2023-07-29T10:06:14;6.43;;;4.45;;
78402;SDS011;67687;43.508;1.504;2023-07-29T10:08:41;5.32;;;4.10;;
78402;SDS011;67687;43.508;1.504;2023-07-29T10:11:09;7.20;;;5.13;;
78402;SDS011;67687;43.508;1.504;2023-07-29T10:13:36;6.13;;;4.43;;
78402;SDS011;67687;43.508;1.504;2023-07-29T10:16:05;6.35;;;4.15;;
78402;SDS011;67687;43.508;1.504;2023-07-29T10:18:32;6.43;;;4.00;;
78402;SDS011;67687;43.508;1.504;2023-07-29T10:21:00;5.97;;;4.30;;
78402;SDS011;67687;43.508;1.504;2023-07-29T10:23:28;5.90;;;4.60;;
78402;SDS011;67687;43.508;1.504;2023-07-29T10:26:01;6.97;;;4.73;;
78402;SDS011;67687;43.508;1.504;2023-07-29T10:28:29;6.03;;;4.80;;
78402;SDS011;67687;43.508;1.504;2023-07-29T10:30:56;7.30;;;4.40;;
78402;SDS011;67687;43.508;1.504;2023-07-29T10:33:25;7.15;;;4.30;;
78402;SDS011;67687;43.508;1.504;2023-07-29T10:35:52;6.22;;;4.47;;
78402;SDS011;67687;43.508;1.504;2023-07-29T10:38:20;6.23;;;4.63;;
78402;SDS011;67687;43.508;1.504;2023-07-29T10:40:48;7.15;;;5.03;;
78402;SDS011;67687;43.508;1.504;2023-07-29T10:43:18;6.25;;;4.43;;
78402;SDS011;67687;43.508;1.504;2023-07-29T10:45:46;5.60;;;4.20;;
78402;SDS011;67687;43.508;1.504;2023-07-29T10:48:13;7.40;;;4.70;;
78402;SDS011;67687;43.508;1.504;2023-07-29T10:51:21;5.67;;;4.30;;
78402;SDS011;67687;43.508;1.504;2023-07-29T10:53:51;8.55;;;4.70;;
78402;SDS011;67687;43.508;1.504;2023-07-29T10:56:24;5.28;;;4.10;;
78402;SDS011;67687;43.508;1.504;2023-07-29T10:58:51;5.88;;;4.47;;
78402;SDS011;67687;43.508;1.504;2023-07-29T11:01:25;6.03;;;4.72;;
78402;SDS011;67687;43.508;1.504;2023-07-29T11:09:55;6.93;;;4.90;;
78402;SDS011;67687;43.508;1.504;2023-07-29T11:12:39;6.82;;;4.70;;
78402;SDS011;67687;43.508;1.504;2023-07-29T11:15:12;7.18;;;4.75;;
78402;SDS011;67687;43.508;1.504;2023-07-29T11:17:41;7.67;;;4.47;;
78402;SDS011;67687;43.508;1.504;2023-07-29T11:20:10;5.72;;;4.50;;
78402;SDS011;67687;43.508;1.504;2023-07-29T11:22:38;6.78;;;4.50;;
78402;SDS011;67687;43.508;1.504;2023-07-29T11:25:05;5.18;;;4.13;;
78402;SDS011;67687;43.508;1.504;2023-07-29T11:27:34;6.40;;;4.03;;
78402;SDS011;67687;43.508;1.504;2023-07-29T11:30:02;7.57;;;4.97;;
78402;SDS011;67687;43.508;1.504;2023-07-29T11:32:31;5.88;;;4.50;;
78402;SDS011;67687;43.508;1.504;2023-07-29T11:35:01;6.43;;;4.07;;
78402;SDS011;67687;43.508;1.504;2023-07-29T11:37:29;7.95;;;4.55;;
78402;SDS011;67687;43.508;1.504;2023-07-29T11:39:56;6.28;;;4.00;;
78402;SDS011;67687;43.508;1.504;2023-07-29T11:42:23;5.73;;;3.93;;
78402;SDS011;67687;43.508;1.504;2023-07-29T11:44:50;6.18;;;4.35;;
78402;SDS011;67687;43.508;1.504;2023-07-29T11:47:17;6.32;;;4.35;;
78402;SDS011;67687;43.508;1.504;2023-07-29T11:49:43;7.07;;;4.20;;
78402;SDS011;67687;43.508;1.504;2023-07-29T11:52:10;5.28;;;4.22;;
78402;SDS011;67687;43.508;1.504;2023-07-29T11:54:39;7.00;;;4.53;;
78402;SDS011;67687;43.508;1.504;2023-07-29T11:57:06;6.57;;;4.65;;
78402;SDS011;67687;43.508;1.504;2023-07-29T11:59:33;5.90;;;4.68;;
78402;SDS011;67687;43.508;1.504;2023-07-29T12:02:00;7.25;;;4.82;;
78402;SDS011;67687;43.508;1.504;2023-07-29T12:04:28;6.07;;;3.80;;
78402;SDS011;67687;43.508;1.504;2023-07-29T12:06:55;5.23;;;4.40;;
78402;SDS011;67687;43.508;1.504;2023-07-29T12:09:22;7.65;;;4.75;;
78402;SDS011;67687;43.508;1.504;2023-07-29T12:11:50;6.45;;;4.13;;
78402;SDS011;67687;43.508;1.504;2023-07-29T12:14:17;6.93;;;4.10;;
78402;SDS011;67687;43.508;1.504;2023-07-29T12:16:44;6.47;;;4.50;;
78402;SDS011;67687;43.508;1.504;2023-07-29T12:19:14;5.83;;;4.13;;
78402;SDS011;67687;43.508;1.504;2023-07-29T12:21:43;5.45;;;4.47;;
78402;SDS011;67687;43.508;1.504;2023-07-29T12:24:10;6.07;;;4.05;;
78402;SDS011;67687;43.508;1.504;2023-07-29T12:26:38;6.43;;;4.50;;
78402;SDS011;67687;43.508;1.504;2023-07-29T12:29:12;6.90;;;4.40;;
78402;SDS011;67687;43.508;1.504;2023-07-29T12:31:39;5.50;;;4.40;;
78402;SDS011;67687;43.508;1.504;2023-07-29T12:34:06;5.70;;;4.30;;
78402;SDS011;67687;43.508;1.504;2023-07-29T12:36:42;5.97;;;4.35;;
78402;SDS011;67687;43.508;1.504;2023-07-29T12:39:16;5.60;;;4.30;;
78402;SDS011;67687;43.508;1.504;2023-07-29T12:41:44;6.55;;;4.30;;
78402;SDS011;67687;43.508;1.504;2023-07-29T12:44:11;4.70;;;3.80;;
78402;SDS011;67687;43.508;1.504;2023-07-29T12:46:39;6.63;;;4.40;;
78402;SDS011;67687;43.508;1.504;2023-07-29T12:49:06;6.55;;;4.10;;
78402;SDS011;67687;43.508;1.504;2023-07-29T12:51:32;5.75;;;4.20;;
78402;SDS011;67687;43.508;1.504;2023-07-29T12:53:59;5.43;;;4.20;;
78402;SDS011;67687;43.508;1.504;2023-07-29T12:56:26;6.13;;;4.50;;
78402;SDS011;67687;43.508;1.504;2023-07-29T12:58:53;6.40;;;4.68;;
78402;SDS011;67687;43.508;1.504;2023-07-29T13:01:21;5.63;;;3.95;;
78402;SDS011;67687;43.508;1.504;2023-07-29T13:03:48;5.30;;;4.38;;
78402;SDS011;67687;43.508;1.504;2023-07-29T13:06:15;5.93;;;4.45;;
78402;SDS011;67687;43.508;1.504;2023-07-29T13:08:42;6.33;;;4.40;;
78402;SDS011;67687;43.508;1.504;2023-07-29T13:11:09;5.35;;;4.20;;
78402;SDS011;67687;43.508;1.504;2023-07-29T13:13:36;5.85;;;4.47;;
78402;SDS011;67687;43.508;1.504;2023-07-29T13:16:02;5.40;;;4.50;;
78402;SDS011;67687;43.508;1.504;2023-07-29T13:18:31;5.60;;;4.25;;
78402;SDS011;67687;43.508;1.504;2023-07-29T13:20:57;7.33;;;4.50;;
78402;SDS011;67687;43.508;1.504;2023-07-29T13:23:25;6.53;;;4.78;;
78402;SDS011;67687;43.508;1.504;2023-07-29T13:25:53;5.65;;;4.32;;
78402;SDS011;67687;43.508;1.504;2023-07-29T13:28:19;5.78;;;4.43;;
78402;SDS011;67687;43.508;1.504;2023-07-29T13:30:46;5.38;;;4.50;;
78402;SDS011;67687;43.508;1.504;2023-07-29T13:33:14;6.60;;;4.83;;
78402;SDS011;67687;43.508;1.504;2023-07-29T13:35:42;6.38;;;4.45;;
78402;SDS011;67687;43.508;1.504;2023-07-29T13:38:09;6.30;;;4.43;;
78402;SDS011;67687;43.508;1.504;2023-07-29T13:40:36;6.60;;;4.80;;
78402;SDS011;67687;43.508;1.504;2023-07-29T13:43:03;7.45;;;4.47;;
78402;SDS011;67687;43.508;1.504;2023-07-29T13:45:29;7.70;;;4.90;;
78402;SDS011;67687;43.508;1.504;2023-07-29T13:47:56;6.65;;;5.03;;
78402;SDS011;67687;43.508;1.504;2023-07-29T13:50:23;5.85;;;4.53;;
78402;SDS011;67687;43.508;1.504;2023-07-29T13:52:51;5.55;;;4.53;;
78402;SDS011;67687;43.508;1.504;2023-07-29T13:55:17;6.93;;;4.68;;
78402;SDS011;67687;43.508;1.504;2023-07-29T13:57:44;6.73;;;5.17;;
78402;SDS011;67687;43.508;1.504;2023-07-29T14:00:11;6.85;;;4.63;;
78402;SDS011;67687;43.508;1.504;2023-07-29T14:02:39;9.25;;;5.03;;
78402;SDS011;67687;43.508;1.504;2023-07-29T14:05:05;5.70;;;4.65;;
78402;SDS011;67687;43.508;1.504;2023-07-29T14:07:33;7.18;;;4.20;;
78402;SDS011;67687;43.508;1.504;2023-07-29T14:10:01;7.17;;;4.57;;
78402;SDS011;67687;43.508;1.504;2023-07-29T14:12:27;6.80;;;4.20;;
78402;SDS011;67687;43.508;1.504;2023-07-29T14:14:54;5.70;;;4.10;;
78402;SDS011;67687;43.508;1.504;2023-07-29T14:17:21;6.25;;;4.10;;
78402;SDS011;67687;43.508;1.504;2023-07-29T14:19:47;7.47;;;4.30;;
78402;SDS011;67687;43.508;1.504;2023-07-29T14:22:14;6.37;;;4.07;;
78402;SDS011;67687;43.508;1.504;2023-07-29T14:24:41;6.93;;;4.30;;
78402;SDS011;67687;43.508;1.504;2023-07-29T14:27:09;6.25;;;4.43;;
78402;SDS011;67687;43.508;1.504;2023-07-29T14:29:36;5.57;;;4.20;;
78402;SDS011;67687;43.508;1.504;2023-07-29T14:32:03;7.65;;;4.60;;
78402;SDS011;67687;43.508;1.504;2023-07-29T14:34:30;6.07;;;4.07;;
78402;SDS011;67687;43.508;1.504;2023-07-29T14:36:57;6.50;;;4.60;;
78402;SDS011;67687;43.508;1.504;2023-07-29T14:39:23;6.03;;;4.55;;
78402;SDS011;67687;43.508;1.504;2023-07-29T14:41:50;6.68;;;4.55;;
78402;SDS011;67687;43.508;1.504;2023-07-29T14:44:18;5.68;;;4.20;;
78402;SDS011;67687;43.508;1.504;2023-07-29T14:46:45;7.23;;;4.50;;
78402;SDS011;67687;43.508;1.504;2023-07-29T14:49:12;6.10;;;4.80;;
78402;SDS011;67687;43.508;1.504;2023-07-29T14:51:38;5.82;;;4.10;;
78402;SDS011;67687;43.508;1.504;2023-07-29T14:54:05;6.20;;;4.47;;
78402;SDS011;67687;43.508;1.504;2023-07-29T14:56:32;6.13;;;4.20;;